createdAt,value
2018-03-25T00:00:50.794Z,1006.28
2018-03-25T00:01:59.904Z,1006.32
2018-03-25T00:03:09.315Z,1006.29
2018-03-25T00:04:18.149Z,1006.27
2018-03-25T00:05:26.981Z,1006.27
2018-03-25T00:06:35.813Z,1006.27
2018-03-25T00:07:44.922Z,1006.27
2018-03-25T00:08:54.053Z,1006.33
2018-03-25T00:10:02.884Z,1006.28
2018-03-25T00:11:11.715Z,1006.29
2018-03-25T00:12:20.552Z,1006.31
2018-03-25T00:13:29.663Z,1006.33
2018-03-25T00:14:38.598Z,1006.32
2018-03-25T00:15:47.430Z,1006.34
2018-03-25T00:16:56.267Z,1006.35
2018-03-25T00:18:05.093Z,1006.35
2018-03-25T00:19:13.923Z,1006.34
2018-03-25T00:20:22.754Z,1006.36
2018-03-25T00:21:31.588Z,1006.36
2018-03-25T00:22:40.421Z,1006.36
2018-03-25T00:23:49.253Z,1006.32
2018-03-25T00:24:58.084Z,1006.34
2018-03-25T00:26:07.167Z,1006.34
2018-03-25T00:27:15.998Z,1006.32
2018-03-25T00:28:24.831Z,1006.34
2018-03-25T00:29:33.660Z,1006.32
2018-03-25T00:30:42.494Z,1006.31
2018-03-25T00:31:51.325Z,1006.33
2018-03-25T00:33:00.440Z,1006.31
2018-03-25T00:34:09.272Z,1006.34
2018-03-25T00:35:18.104Z,1006.32
2018-03-25T00:36:26.935Z,1006.3
2018-03-25T00:37:36.019Z,1006.31
2018-03-25T00:38:44.858Z,1006.32
2018-03-25T00:39:53.978Z,1006.36
2018-03-25T00:41:02.811Z,1006.38
2018-03-25T00:42:11.642Z,1006.37
2018-03-25T00:43:20.625Z,1006.35
2018-03-25T00:44:29.456Z,1006.38
2018-03-25T00:45:38.566Z,1006.34
2018-03-25T00:46:47.399Z,1006.37
2018-03-25T00:47:56.233Z,1006.37
2018-03-25T00:49:05.118Z,1006.35
2018-03-25T00:50:13.950Z,1006.36
2018-03-25T00:51:23.059Z,1006.34
2018-03-25T00:52:31.890Z,1006.31
2018-03-25T00:53:40.724Z,1006.33
2018-03-25T00:54:49.555Z,1006.34
2018-03-25T00:55:58.388Z,1006.36
2018-03-25T00:57:07.221Z,1006.33
2018-03-25T00:58:16.056Z,1006.36
2018-03-25T00:59:25.166Z,1006.37
2018-03-25T01:00:34.144Z,1006.33
2018-03-25T01:01:42.974Z,1006.34
2018-03-25T01:02:51.806Z,1006.35
2018-03-25T01:04:00.636Z,1006.31
2018-03-25T01:05:09.467Z,1006.35
2018-03-25T01:06:18.299Z,1006.34
2018-03-25T01:07:27.137Z,1006.29
2018-03-25T01:08:35.964Z,1006.32
2018-03-25T01:09:45.071Z,1006.33
2018-03-25T01:10:53.906Z,1006.3
2018-03-25T01:12:02.737Z,1006.29
2018-03-25T01:13:11.571Z,1006.28
2018-03-25T01:14:20.402Z,1006.31
2018-03-25T01:15:29.235Z,1006.3
2018-03-25T01:16:38.068Z,1006.26
2018-03-25T01:17:47.201Z,1006.28
2018-03-25T01:18:56.032Z,1006.31
2018-03-25T01:20:04.866Z,1006.29
2018-03-25T01:21:13.696Z,1006.26
2018-03-25T01:22:22.528Z,1006.23
2018-03-25T01:23:31.412Z,1006.31
2018-03-25T01:24:40.246Z,1006.28
2018-03-25T01:25:49.078Z,1006.27
2018-03-25T01:26:58.183Z,1006.27
2018-03-25T01:28:07.015Z,1006.32
2018-03-25T01:29:16.295Z,1006.26
2018-03-25T01:30:25.127Z,1006.29
2018-03-25T01:31:33.962Z,1006.3
2018-03-25T01:32:42.795Z,1006.34
2018-03-25T01:33:51.627Z,1006.32
2018-03-25T01:35:00.459Z,1006.34
2018-03-25T01:36:09.293Z,1006.33
2018-03-25T01:37:18.127Z,1006.35
2018-03-25T01:38:27.246Z,1006.33
2018-03-25T01:39:36.078Z,1006.33
2018-03-25T01:40:44.910Z,1006.32
2018-03-25T01:41:53.743Z,1006.32
2018-03-25T01:43:02.577Z,1006.3
2018-03-25T01:44:11.407Z,1006.35
2018-03-25T01:45:20.236Z,1006.36
2018-03-25T01:46:29.066Z,1006.41
2018-03-25T01:47:38.176Z,1006.35
2018-03-25T01:48:47.010Z,1006.34
2018-03-25T01:49:55.839Z,1006.37
2018-03-25T01:51:04.673Z,1006.33
2018-03-25T01:52:13.666Z,1006.38
2018-03-25T01:53:22.492Z,1006.35
2018-03-25T01:54:31.328Z,1006.37
2018-03-25T01:55:40.447Z,1006.38
2018-03-25T01:56:49.280Z,1006.41
2018-03-25T01:57:58.110Z,1006.34
2018-03-25T01:59:06.943Z,1006.37
2018-03-25T02:00:15.773Z,1006.33
2018-03-25T02:01:24.602Z,1006.36
2018-03-25T02:02:33.435Z,1006.35
2018-03-25T02:03:42.418Z,1006.33
2018-03-25T02:04:51.253Z,1006.36
2018-03-25T02:06:00.085Z,1006.34
2018-03-25T02:07:09.467Z,1006.36
2018-03-25T02:08:18.575Z,1006.36
2018-03-25T02:09:27.986Z,1006.34
2018-03-25T02:10:36.816Z,1006.34
2018-03-25T02:11:45.648Z,1006.32
2018-03-25T02:12:54.480Z,1006.3
2018-03-25T02:14:03.311Z,1006.29
2018-03-25T02:15:12.143Z,1006.27
2018-03-25T02:16:20.975Z,1006.31
2018-03-25T02:17:29.809Z,1006.25
2018-03-25T02:18:38.972Z,1006.28
2018-03-25T02:19:47.806Z,1006.3
2018-03-25T02:20:56.639Z,1006.34
2018-03-25T02:22:05.471Z,1006.31
2018-03-25T02:23:14.303Z,1006.29
2018-03-25T02:24:23.134Z,1006.29
2018-03-25T02:25:32.246Z,1006.31
2018-03-25T02:26:41.124Z,1006.31
2018-03-25T02:27:49.970Z,1006.28
2018-03-25T02:28:59.080Z,1006.27
2018-03-25T02:30:07.908Z,1006.33
2018-03-25T02:31:16.743Z,1006.32
2018-03-25T02:32:25.575Z,1006.34
2018-03-25T02:33:34.687Z,1006.32
2018-03-25T02:34:43.521Z,1006.32
2018-03-25T02:35:52.355Z,1006.3
2018-03-25T02:37:01.188Z,1006.34
2018-03-25T02:38:10.444Z,1006.35
2018-03-25T02:39:19.280Z,1006.33
2018-03-25T02:40:28.113Z,1006.33
2018-03-25T02:41:36.949Z,1006.39
2018-03-25T02:42:45.789Z,1006.33
2018-03-25T02:43:54.617Z,1006.35
2018-03-25T02:45:03.448Z,1006.31
2018-03-25T02:46:12.281Z,1006.31
2018-03-25T02:47:21.114Z,1006.34
2018-03-25T02:48:29.948Z,1006.35
2018-03-25T02:49:38.931Z,1006.33
2018-03-25T02:50:47.769Z,1006.31
2018-03-25T02:51:56.875Z,1006.35
2018-03-25T02:53:05.711Z,1006.33
2018-03-25T02:54:14.814Z,1006.32
2018-03-25T02:55:23.799Z,1006.37
2018-03-25T02:56:32.925Z,1006.4
2018-03-25T02:57:42.033Z,1006.38
2018-03-25T02:58:51.153Z,1006.38
2018-03-25T02:59:59.985Z,1006.38
2018-03-25T03:01:09.256Z,1006.4
2018-03-25T03:02:18.091Z,1006.41
2018-03-25T03:03:26.937Z,1006.44
2018-03-25T03:04:35.765Z,1006.39
2018-03-25T03:05:44.886Z,1006.42
2018-03-25T03:06:53.714Z,1006.44
2018-03-25T03:08:02.545Z,1006.49
2018-03-25T03:09:11.378Z,1006.5
2018-03-25T03:10:20.763Z,1006.51
2018-03-25T03:11:29.605Z,1006.54
2018-03-25T03:12:38.578Z,1006.54
2018-03-25T03:13:47.978Z,1006.55
2018-03-25T03:14:56.808Z,1006.59
2018-03-25T03:16:05.642Z,1006.53
2018-03-25T03:17:14.474Z,1006.56
2018-03-25T03:18:23.357Z,1006.59
2018-03-25T03:19:32.193Z,1006.6
2018-03-25T03:20:41.026Z,1006.61
2018-03-25T03:21:49.857Z,1006.68
2018-03-25T03:22:58.689Z,1006.69
2018-03-25T03:24:07.770Z,1006.67
2018-03-25T03:25:16.876Z,1006.68
2018-03-25T03:26:25.708Z,1006.7
2018-03-25T03:27:34.539Z,1006.69
2018-03-25T03:28:43.368Z,1006.73
2018-03-25T03:29:52.202Z,1006.73
2018-03-25T03:31:01.036Z,1006.75
2018-03-25T03:32:09.870Z,1006.72
2018-03-25T03:33:18.704Z,1006.74
2018-03-25T03:34:27.535Z,1006.74
2018-03-25T03:35:36.744Z,1006.75
2018-03-25T03:36:45.576Z,1006.76
2018-03-25T03:37:54.405Z,1006.77
2018-03-25T03:39:03.239Z,1006.8
2018-03-25T03:40:12.073Z,1006.78
2018-03-25T03:41:20.902Z,1006.79
2018-03-25T03:42:29.735Z,1006.75
2018-03-25T03:43:38.562Z,1006.77
2018-03-25T03:44:47.395Z,1006.77
2018-03-25T03:45:56.230Z,1006.77
2018-03-25T03:47:05.058Z,1006.78
2018-03-25T03:48:13.889Z,1006.82
2018-03-25T03:49:22.719Z,1006.77
2018-03-25T03:50:31.549Z,1006.8
2018-03-25T03:51:40.379Z,1006.78
2018-03-25T03:52:49.512Z,1006.81
2018-03-25T03:53:58.340Z,1006.83
2018-03-25T03:55:07.171Z,1006.77
2018-03-25T03:56:16.002Z,1006.78
2018-03-25T03:57:24.835Z,1006.8
2018-03-25T03:58:34.092Z,1006.81
2018-03-25T03:59:42.925Z,1006.77
2018-03-25T04:00:51.758Z,1006.82
2018-03-25T04:02:00.594Z,1006.85
2018-03-25T04:03:09.422Z,1006.83
2018-03-25T04:04:18.254Z,1006.82
2018-03-25T04:05:27.087Z,1006.85
2018-03-25T04:06:35.917Z,1006.84
2018-03-25T04:07:44.750Z,1006.83
2018-03-25T04:08:53.578Z,1006.86
2018-03-25T04:10:02.710Z,1006.87
2018-03-25T04:11:11.542Z,1006.87
2018-03-25T04:12:20.372Z,1006.88
2018-03-25T04:13:29.202Z,1006.86
2018-03-25T04:14:38.032Z,1006.84
2018-03-25T04:15:46.965Z,1006.85
2018-03-25T04:16:55.797Z,1006.88
2018-03-25T04:18:04.904Z,1006.86
2018-03-25T04:19:14.015Z,1006.9
2018-03-25T04:20:22.845Z,1006.86
2018-03-25T04:21:31.877Z,1006.88
2018-03-25T04:22:40.708Z,1006.82
2018-03-25T04:23:49.540Z,1006.86
2018-03-25T04:24:58.369Z,1006.84
2018-03-25T04:26:07.201Z,1006.81
2018-03-25T04:27:16.459Z,1006.8
2018-03-25T04:28:25.290Z,1006.81
2018-03-25T04:29:34.123Z,1006.83
2018-03-25T04:30:43.245Z,1006.8
2018-03-25T04:31:52.075Z,1006.83
2018-03-25T04:33:01.055Z,1006.86
2018-03-25T04:34:10.164Z,1006.87
2018-03-25T04:35:18.994Z,1006.87
2018-03-25T04:36:27.823Z,1006.9
2018-03-25T04:37:36.655Z,1006.88
2018-03-25T04:38:45.863Z,1006.89
2018-03-25T04:39:54.695Z,1006.89
2018-03-25T04:41:03.539Z,1006.92
2018-03-25T04:42:12.361Z,1006.91
2018-03-25T04:43:21.193Z,1006.87
2018-03-25T04:44:30.077Z,1006.9
2018-03-25T04:45:38.909Z,1006.87
2018-03-25T04:46:47.742Z,1006.87
2018-03-25T04:47:56.572Z,1006.86
2018-03-25T04:49:05.709Z,1006.87
2018-03-25T04:50:14.558Z,1006.92
2018-03-25T04:51:23.389Z,1006.89
2018-03-25T04:52:32.774Z,1006.89
2018-03-25T04:53:41.607Z,1006.9
2018-03-25T04:54:50.440Z,1006.89
2018-03-25T04:55:59.566Z,1006.9
2018-03-25T04:57:08.646Z,1006.88
2018-03-25T04:58:18.028Z,1006.9
2018-03-25T04:59:26.859Z,1006.89
2018-03-25T05:00:35.687Z,1006.91
2018-03-25T05:01:44.520Z,1006.9
2018-03-25T05:02:53.352Z,1006.92
2018-03-25T05:04:02.179Z,1006.93
2018-03-25T05:05:11.011Z,1006.94
2018-03-25T05:06:19.841Z,1006.92
2018-03-25T05:07:28.722Z,1006.98
2018-03-25T05:08:37.555Z,1006.99
2018-03-25T05:09:46.386Z,1006.97
2018-03-25T05:10:55.216Z,1006.97
2018-03-25T05:12:04.049Z,1007
2018-03-25T05:13:13.308Z,1007.02
2018-03-25T05:14:22.138Z,1007.07
2018-03-25T05:15:30.969Z,1007.04
2018-03-25T05:16:39.799Z,1007.03
2018-03-25T05:17:48.630Z,1007.05
2018-03-25T05:18:57.763Z,1007.07
2018-03-25T05:20:06.650Z,1007.08
2018-03-25T05:21:15.426Z,1007.03
2018-03-25T05:22:24.259Z,1007.06
2018-03-25T05:23:33.087Z,1007.06
2018-03-25T05:24:42.022Z,1007.04
2018-03-25T05:25:50.853Z,1007.05
2018-03-25T05:26:59.683Z,1007.07
2018-03-25T05:28:08.854Z,1007
2018-03-25T05:29:17.686Z,1007.03
2018-03-25T05:30:26.521Z,1007.04
2018-03-25T05:31:35.356Z,1007.05
2018-03-25T05:32:44.184Z,1007.04
2018-03-25T05:33:53.015Z,1007.07
2018-03-25T05:35:02.401Z,1007.08
2018-03-25T05:36:11.286Z,1007.07
2018-03-25T05:37:20.120Z,1007.08
2018-03-25T05:38:29.228Z,1007.06
2018-03-25T05:39:38.060Z,1007.07
2018-03-25T05:40:46.895Z,1007.09
2018-03-25T05:41:56.016Z,1007.06
2018-03-25T05:43:04.849Z,1007.06
2018-03-25T05:44:13.680Z,1007.07
2018-03-25T05:45:22.512Z,1007.12
2018-03-25T05:46:31.342Z,1007.09
2018-03-25T05:47:40.474Z,1007.1
2018-03-25T05:48:49.308Z,1007.12
2018-03-25T05:49:58.138Z,1007.08
2018-03-25T05:51:06.969Z,1007.11
2018-03-25T05:52:15.802Z,1007.13
2018-03-25T05:53:24.789Z,1007.15
2018-03-25T05:54:33.612Z,1007.14
2018-03-25T05:55:42.445Z,1007.15
2018-03-25T05:56:51.279Z,1007.17
2018-03-25T05:58:00.106Z,1007.2
2018-03-25T05:59:09.090Z,1007.2
2018-03-25T06:00:17.922Z,1007.21
2018-03-25T06:01:26.752Z,1007.2
2018-03-25T06:02:35.582Z,1007.22
2018-03-25T06:03:44.693Z,1007.27
2018-03-25T06:04:53.825Z,1007.29
2018-03-25T06:06:02.656Z,1007.34
2018-03-25T06:07:11.507Z,1007.31
2018-03-25T06:08:20.595Z,1007.33
2018-03-25T06:09:29.428Z,1007.36
2018-03-25T06:10:38.309Z,1007.36
2018-03-25T06:11:47.141Z,1007.38
2018-03-25T06:12:56.023Z,1007.38
2018-03-25T06:14:04.854Z,1007.41
2018-03-25T06:15:13.685Z,1007.39
2018-03-25T06:16:22.618Z,1007.39
2018-03-25T06:17:31.447Z,1007.41
2018-03-25T06:18:40.282Z,1007.39
2018-03-25T06:19:49.115Z,1007.38
2018-03-25T06:20:57.945Z,1007.36
2018-03-25T06:22:07.210Z,1007.42
2018-03-25T06:23:16.314Z,1007.45
2018-03-25T06:24:25.146Z,1007.42
2018-03-25T06:25:33.979Z,1007.47
2018-03-25T06:26:42.816Z,1007.49
2018-03-25T06:27:51.750Z,1007.58
2018-03-25T06:29:00.602Z,1007.53
2018-03-25T06:30:09.422Z,1007.56
2018-03-25T06:31:18.251Z,1007.59
2018-03-25T06:32:27.082Z,1007.61
2018-03-25T06:33:36.065Z,1007.58
2018-03-25T06:34:44.904Z,1007.56
2018-03-25T06:35:53.724Z,1007.59
2018-03-25T06:37:02.558Z,1007.64
2018-03-25T06:38:11.666Z,1007.64
2018-03-25T06:39:20.771Z,1007.66
2018-03-25T06:40:29.602Z,1007.68
2018-03-25T06:41:38.433Z,1007.69
2018-03-25T06:42:47.265Z,1007.73
2018-03-25T06:43:56.376Z,1007.72
2018-03-25T06:45:05.508Z,1007.75
2018-03-25T06:46:14.342Z,1007.76
2018-03-25T06:47:23.175Z,1007.8
2018-03-25T06:48:32.011Z,1007.82
2018-03-25T06:49:40.844Z,1007.82
2018-03-25T06:50:50.201Z,1007.8
2018-03-25T06:51:59.032Z,1007.8
2018-03-25T06:53:08.147Z,1007.78
2018-03-25T06:54:17.252Z,1007.8
2018-03-25T06:55:26.084Z,1007.8
2018-03-25T06:56:35.192Z,1007.84
2018-03-25T06:57:44.024Z,1007.82
2018-03-25T06:58:53.136Z,1007.87
2018-03-25T07:00:01.969Z,1007.89
2018-03-25T07:01:10.802Z,1007.89
2018-03-25T07:02:20.287Z,1007.9
2018-03-25T07:03:29.398Z,1007.95
2018-03-25T07:04:38.237Z,1007.99
2018-03-25T07:05:47.627Z,1007.96
2018-03-25T07:06:56.743Z,1008.01
2018-03-25T07:08:05.725Z,1007.99
2018-03-25T07:09:14.841Z,1008.04
2018-03-25T07:10:23.669Z,1008.04
2018-03-25T07:11:32.777Z,1008.06
2018-03-25T07:12:41.657Z,1008.06
2018-03-25T07:13:50.790Z,1008.1
2018-03-25T07:14:59.622Z,1008.08
2018-03-25T07:16:08.457Z,1008.13
2018-03-25T07:17:17.285Z,1008.14
2018-03-25T07:18:26.120Z,1008.12
2018-03-25T07:19:35.050Z,1008.14
2018-03-25T07:20:43.886Z,1008.14
2018-03-25T07:21:52.719Z,1008.16
2018-03-25T07:23:01.551Z,1008.19
2018-03-25T07:24:10.390Z,1008.14
2018-03-25T07:25:19.277Z,1008.17
2018-03-25T07:26:28.104Z,1008.23
2018-03-25T07:27:36.936Z,1008.21
2018-03-25T07:28:45.769Z,1008.21
2018-03-25T07:29:54.882Z,1008.22
2018-03-25T07:31:03.763Z,1008.23
2018-03-25T07:32:12.597Z,1008.22
2018-03-25T07:33:21.429Z,1008.3
2018-03-25T07:34:30.263Z,1008.3
2018-03-25T07:35:39.098Z,1008.29
2018-03-25T07:36:48.081Z,1008.31
2018-03-25T07:37:56.918Z,1008.36
2018-03-25T07:39:05.748Z,1008.32
2018-03-25T07:40:14.579Z,1008.33
2018-03-25T07:41:23.414Z,1008.36
2018-03-25T07:42:32.549Z,1008.36
2018-03-25T07:43:41.663Z,1008.38
2018-03-25T07:44:50.767Z,1008.35
2018-03-25T07:45:59.599Z,1008.36
2018-03-25T07:47:08.436Z,1008.42
2018-03-25T07:48:17.265Z,1008.38
2018-03-25T07:49:26.098Z,1008.4
2018-03-25T07:50:34.932Z,1008.42
2018-03-25T07:51:44.040Z,1008.42
2018-03-25T07:52:52.872Z,1008.47
2018-03-25T07:54:01.803Z,1008.49
2018-03-25T07:55:10.641Z,1008.47
2018-03-25T07:56:19.471Z,1008.49
2018-03-25T07:57:28.304Z,1008.5
2018-03-25T07:58:37.136Z,1008.5
2018-03-25T07:59:46.220Z,1008.51
2018-03-25T08:00:55.052Z,1008.51
2018-03-25T08:02:03.884Z,1008.52
2018-03-25T08:03:12.715Z,1008.5
2018-03-25T08:04:21.546Z,1008.55
2018-03-25T08:05:30.761Z,1008.54
2018-03-25T08:06:39.600Z,1008.57
2018-03-25T08:07:48.991Z,1008.61
2018-03-25T08:08:57.824Z,1008.6
2018-03-25T08:10:06.659Z,1008.62
2018-03-25T08:11:15.692Z,1008.64
2018-03-25T08:12:24.529Z,1008.65
2018-03-25T08:13:33.639Z,1008.64
2018-03-25T08:14:42.474Z,1008.65
2018-03-25T08:15:51.306Z,1008.67
2018-03-25T08:17:00.289Z,1008.63
2018-03-25T08:18:09.124Z,1008.64
2018-03-25T08:19:17.958Z,1008.69
2018-03-25T08:20:26.791Z,1008.67
2018-03-25T08:21:35.625Z,1008.73
2018-03-25T08:22:44.510Z,1008.71
2018-03-25T08:23:53.344Z,1008.69
2018-03-25T08:25:02.176Z,1008.73
2018-03-25T08:26:11.010Z,1008.74
2018-03-25T08:27:19.843Z,1008.75
2018-03-25T08:28:28.727Z,1008.79
2018-03-25T08:29:37.560Z,1008.8
2018-03-25T08:30:46.397Z,1008.86
2018-03-25T08:31:55.230Z,1008.82
2018-03-25T08:33:04.063Z,1008.85
2018-03-25T08:34:13.047Z,1008.87
2018-03-25T08:35:21.897Z,1008.88
2018-03-25T08:36:30.720Z,1008.85
2018-03-25T08:37:39.553Z,1008.89
2018-03-25T08:38:48.389Z,1008.88
2018-03-25T08:39:57.323Z,1008.88
2018-03-25T08:41:06.434Z,1008.92
2018-03-25T08:42:15.266Z,1008.88
2018-03-25T08:43:24.378Z,1008.91
2018-03-25T08:44:33.214Z,1008.94
2018-03-25T08:45:42.349Z,1008.94
2018-03-25T08:46:51.183Z,1008.9
2018-03-25T08:48:00.332Z,1008.93
2018-03-25T08:49:09.167Z,1008.98
2018-03-25T08:50:18.284Z,1008.94
2018-03-25T08:51:27.115Z,1008.98
2018-03-25T08:52:35.949Z,1008.93
2018-03-25T08:53:44.784Z,1008.96
2018-03-25T08:54:53.944Z,1008.98
2018-03-25T08:56:02.739Z,1008.97
2018-03-25T08:57:11.898Z,1008.92
2018-03-25T08:58:20.733Z,1008.94
2018-03-25T08:59:29.570Z,1009
2018-03-25T09:00:38.404Z,1008.92
2018-03-25T09:01:47.239Z,1008.94
2018-03-25T09:02:56.074Z,1008.96
2018-03-25T09:04:05.187Z,1008.94
2018-03-25T09:05:14.022Z,1008.95
2018-03-25T09:06:22.884Z,1008.94
2018-03-25T09:07:31.968Z,1008.98
2018-03-25T09:08:41.105Z,1008.97
2018-03-25T09:09:49.941Z,1009
2018-03-25T09:10:58.776Z,1008.98
2018-03-25T09:12:07.614Z,1009.03
2018-03-25T09:13:16.447Z,1008.98
2018-03-25T09:14:25.435Z,1008.96
2018-03-25T09:15:34.268Z,1008.96
2018-03-25T09:16:43.102Z,1008.96
2018-03-25T09:17:51.936Z,1008.98
2018-03-25T09:19:00.773Z,1008.99
2018-03-25T09:20:09.608Z,1008.96
2018-03-25T09:21:18.441Z,1008.98
2018-03-25T09:22:27.282Z,1008.98
2018-03-25T09:23:36.118Z,1008.96
2018-03-25T09:24:44.947Z,1008.97
2018-03-25T09:25:54.209Z,1008.98
2018-03-25T09:27:03.046Z,1008.97
2018-03-25T09:28:11.879Z,1009.01
2018-03-25T09:29:20.991Z,1009
2018-03-25T09:30:29.827Z,1008.98
2018-03-25T09:31:38.765Z,1009.02
2018-03-25T09:32:47.650Z,1008.93
2018-03-25T09:33:56.491Z,1008.95
2018-03-25T09:35:05.876Z,1008.99
2018-03-25T09:36:14.714Z,1009
2018-03-25T09:37:23.595Z,1008.97
2018-03-25T09:38:32.382Z,1008.97
2018-03-25T09:39:41.217Z,1009.06
2018-03-25T09:40:50.053Z,1009.03
2018-03-25T09:41:58.889Z,1009.05
2018-03-25T09:43:07.827Z,1009.06
2018-03-25T09:44:16.662Z,1009.05
2018-03-25T09:45:25.501Z,1009.07
2018-03-25T09:46:34.338Z,1009.04
2018-03-25T09:47:43.172Z,1009.11
2018-03-25T09:48:52.057Z,1009.11
2018-03-25T09:50:00.893Z,1009.15
2018-03-25T09:51:10.007Z,1009.14
2018-03-25T09:52:18.842Z,1009.21
2018-03-25T09:53:27.677Z,1009.17
2018-03-25T09:54:36.664Z,1009.24
2018-03-25T09:55:45.497Z,1009.23
2018-03-25T09:56:54.613Z,1009.26
2018-03-25T09:58:03.456Z,1009.24
2018-03-25T09:59:12.283Z,1009.25
2018-03-25T10:00:21.219Z,1009.25
2018-03-25T10:01:30.054Z,1009.26
2018-03-25T10:02:38.891Z,1009.24
2018-03-25T10:03:47.773Z,1009.28
2018-03-25T10:04:56.563Z,1009.24
2018-03-25T10:06:05.451Z,1009.2
2018-03-25T10:07:14.287Z,1009.23
2018-03-25T10:08:23.401Z,1009.2
2018-03-25T10:09:32.515Z,1009.2
2018-03-25T10:10:41.953Z,1009.27
2018-03-25T10:11:50.838Z,1009.29
2018-03-25T10:12:59.680Z,1009.29
2018-03-25T10:14:08.798Z,1009.28
2018-03-25T10:15:17.633Z,1009.32
2018-03-25T10:16:26.469Z,1009.33
2018-03-25T10:17:35.406Z,1009.35
2018-03-25T10:18:44.522Z,1009.37
2018-03-25T10:19:53.358Z,1009.33
2018-03-25T10:21:02.200Z,1009.33
2018-03-25T10:22:11.037Z,1009.39
2018-03-25T10:23:20.161Z,1009.36
2018-03-25T10:24:29.010Z,1009.35
2018-03-25T10:25:37.833Z,1009.35
2018-03-25T10:26:47.233Z,1009.35
2018-03-25T10:27:56.068Z,1009.4
2018-03-25T10:29:05.006Z,1009.37
2018-03-25T10:30:13.842Z,1009.33
2018-03-25T10:31:22.683Z,1009.38
2018-03-25T10:32:31.523Z,1009.35
2018-03-25T10:33:40.364Z,1009.39
2018-03-25T10:34:49.879Z,1009.36
2018-03-25T10:35:58.714Z,1009.37
2018-03-25T10:37:07.832Z,1009.38
2018-03-25T10:38:16.668Z,1009.36
2018-03-25T10:39:25.511Z,1009.36
2018-03-25T10:40:34.345Z,1009.36
2018-03-25T10:41:43.184Z,1009.36
2018-03-25T10:42:52.023Z,1009.43
2018-03-25T10:44:00.859Z,1009.33
2018-03-25T10:45:09.696Z,1009.34
2018-03-25T10:46:18.685Z,1009.33
2018-03-25T10:47:27.522Z,1009.33
2018-03-25T10:48:36.358Z,1009.36
2018-03-25T10:49:45.196Z,1009.36
2018-03-25T10:50:54.036Z,1009.36
2018-03-25T10:52:03.158Z,1009.39
2018-03-25T10:53:11.997Z,1009.41
2018-03-25T10:54:20.831Z,1009.4
2018-03-25T10:55:29.671Z,1009.37
2018-03-25T10:56:38.511Z,1009.43
2018-03-25T10:57:47.501Z,1009.42
2018-03-25T10:58:56.617Z,1009.43
2018-03-25T11:00:05.455Z,1009.45
2018-03-25T11:01:14.307Z,1009.44
2018-03-25T11:02:23.134Z,1009.42
2018-03-25T11:03:32.073Z,1009.38
2018-03-25T11:04:40.913Z,1009.43
2018-03-25T11:05:49.747Z,1009.42
2018-03-25T11:06:58.586Z,1009.45
2018-03-25T11:08:07.422Z,1009.43
2018-03-25T11:09:16.315Z,1009.48
2018-03-25T11:10:25.429Z,1009.48
2018-03-25T11:11:34.309Z,1009.48
2018-03-25T11:12:45.710Z,1009.51
2018-03-25T11:13:54.547Z,1009.5
2018-03-25T11:15:03.537Z,1009.52
2018-03-25T11:16:12.374Z,1009.51
2018-03-25T11:17:21.247Z,1009.49
2018-03-25T11:18:30.051Z,1009.49
2018-03-25T11:19:38.892Z,1009.46
2018-03-25T11:20:47.827Z,1009.47
2018-03-25T11:21:56.665Z,1009.44
2018-03-25T11:23:05.503Z,1009.44
2018-03-25T11:24:14.341Z,1009.48
2018-03-25T11:25:23.182Z,1009.5
2018-03-25T11:26:32.321Z,1009.44
2018-03-25T11:27:41.160Z,1009.46
2018-03-25T11:28:50.000Z,1009.47
2018-03-25T11:29:58.881Z,1009.46
2018-03-25T11:31:07.681Z,1009.5
2018-03-25T11:32:16.626Z,1009.43
2018-03-25T11:33:25.464Z,1009.46
2018-03-25T11:34:34.307Z,1009.47
2018-03-25T11:35:43.150Z,1009.44
2018-03-25T11:36:51.986Z,1009.46
2018-03-25T11:38:01.165Z,1009.47
2018-03-25T11:39:10.006Z,1009.45
2018-03-25T11:40:18.843Z,1009.47
2018-03-25T11:41:27.680Z,1009.47
2018-03-25T11:42:36.520Z,1009.48
2018-03-25T11:43:45.409Z,1009.48
2018-03-25T11:44:54.248Z,1009.47
2018-03-25T11:46:03.365Z,1009.51
2018-03-25T11:47:12.204Z,1009.47
2018-03-25T11:48:21.045Z,1009.46
2018-03-25T11:49:30.184Z,1009.46
2018-03-25T11:50:39.025Z,1009.48
2018-03-25T11:51:47.866Z,1009.49
2018-03-25T11:52:56.707Z,1009.47
2018-03-25T11:54:05.556Z,1009.51
2018-03-25T11:55:14.670Z,1009.49
2018-03-25T11:56:23.510Z,1009.54
2018-03-25T11:57:32.348Z,1009.53
2018-03-25T11:58:41.190Z,1009.5
2018-03-25T11:59:50.033Z,1009.53
2018-03-25T12:00:58.922Z,1009.54
2018-03-25T12:02:07.762Z,1009.51
2018-03-25T12:03:16.608Z,1009.54
2018-03-25T12:04:25.445Z,1009.53
2018-03-25T12:05:34.287Z,1009.53
2018-03-25T12:06:43.274Z,1009.55
2018-03-25T12:07:52.115Z,1009.54
2018-03-25T12:09:00.952Z,1009.5
2018-03-25T12:10:10.066Z,1009.57
2018-03-25T12:11:18.908Z,1009.52
2018-03-25T12:12:27.899Z,1009.59
2018-03-25T12:13:36.738Z,1009.6
2018-03-25T12:14:45.582Z,1009.6
2018-03-25T12:15:54.423Z,1009.54
2018-03-25T12:17:03.263Z,1009.56
2018-03-25T12:18:12.153Z,1009.59
2018-03-25T12:19:20.997Z,1009.56
2018-03-25T12:20:29.901Z,1009.55
2018-03-25T12:21:38.676Z,1009.59
2018-03-25T12:22:47.794Z,1009.57
2018-03-25T12:23:56.784Z,1009.59
2018-03-25T12:25:05.625Z,1009.56
2018-03-25T12:26:14.464Z,1009.56
2018-03-25T12:27:23.305Z,1009.58
2018-03-25T12:28:32.146Z,1009.55
2018-03-25T12:29:41.088Z,1009.59
2018-03-25T12:30:49.927Z,1009.59
2018-03-25T12:31:58.768Z,1009.61
2018-03-25T12:33:07.608Z,1009.61
2018-03-25T12:34:16.458Z,1009.59
2018-03-25T12:35:25.288Z,1009.58
2018-03-25T12:36:34.407Z,1009.62
2018-03-25T12:37:43.248Z,1009.58
2018-03-25T12:38:52.086Z,1009.58
2018-03-25T12:40:00.928Z,1009.59
2018-03-25T12:41:09.916Z,1009.57
2018-03-25T12:42:18.754Z,1009.56
2018-03-25T12:43:27.594Z,1009.55
2018-03-25T12:44:36.435Z,1009.53
2018-03-25T12:45:45.884Z,1009.58
2018-03-25T12:46:55.024Z,1009.5
2018-03-25T12:48:03.864Z,1009.53
2018-03-25T12:49:12.703Z,1009.55
2018-03-25T12:50:21.541Z,1009.52
2018-03-25T12:51:30.384Z,1009.49
2018-03-25T12:52:39.651Z,1009.49
2018-03-25T12:53:48.492Z,1009.49
2018-03-25T12:54:57.614Z,1009.51
2018-03-25T12:56:06.456Z,1009.52
2018-03-25T12:57:15.296Z,1009.55
2018-03-25T12:58:24.186Z,1009.53
2018-03-25T12:59:33.028Z,1009.53
2018-03-25T13:00:41.863Z,1009.53
2018-03-25T13:01:50.705Z,1009.5
2018-03-25T13:02:59.544Z,1009.5
2018-03-25T13:04:08.485Z,1009.52
2018-03-25T13:05:17.324Z,1009.45
2018-03-25T13:06:26.441Z,1009.44
2018-03-25T13:07:35.281Z,1009.39
2018-03-25T13:08:44.118Z,1009.43
2018-03-25T13:09:53.257Z,1009.39
2018-03-25T13:11:02.097Z,1009.41
2018-03-25T13:12:11.215Z,1009.39
2018-03-25T13:13:20.058Z,1009.4
2018-03-25T13:14:29.170Z,1009.36
2018-03-25T13:15:38.159Z,1009.47
2018-03-25T13:16:46.998Z,1009.43
2018-03-25T13:17:55.837Z,1009.38
2018-03-25T13:19:04.677Z,1009.45
2018-03-25T13:20:13.516Z,1009.46
2018-03-25T13:21:22.604Z,1009.41
2018-03-25T13:22:31.447Z,1009.4
2018-03-25T13:23:40.280Z,1009.43
2018-03-25T13:24:49.398Z,1009.45
2018-03-25T13:25:58.238Z,1009.42
2018-03-25T13:27:07.406Z,1009.44
2018-03-25T13:28:16.244Z,1009.48
2018-03-25T13:29:25.083Z,1009.5
2018-03-25T13:30:33.920Z,1009.5
2018-03-25T13:31:43.041Z,1009.5
2018-03-25T13:32:51.980Z,1009.53
2018-03-25T13:34:00.818Z,1009.5
2018-03-25T13:35:09.935Z,1009.51
2018-03-25T13:36:18.775Z,1009.55
2018-03-25T13:37:27.617Z,1009.52
2018-03-25T13:38:36.454Z,1009.55
2018-03-25T13:39:45.293Z,1009.55
2018-03-25T13:40:54.414Z,1009.58
2018-03-25T13:42:03.525Z,1009.55
2018-03-25T13:43:12.364Z,1009.55
2018-03-25T13:44:21.303Z,1009.53
2018-03-25T13:45:30.140Z,1009.53
2018-03-25T13:46:38.977Z,1009.47
2018-03-25T13:47:47.818Z,1009.51
2018-03-25T13:48:56.654Z,1009.48
2018-03-25T13:50:05.497Z,1009.5
2018-03-25T13:51:14.610Z,1009.45
2018-03-25T13:52:23.449Z,1009.46
2018-03-25T13:53:32.582Z,1009.47
2018-03-25T13:54:41.412Z,1009.48
2018-03-25T13:55:50.251Z,1009.44
2018-03-25T13:56:59.092Z,1009.49